Time;durP1;ratioP1;P1;durP2;ratioP2;P2;SDS_P1;SDS_P2;PMS_P1;PMS_P2;Temp;Humidity;BMP_temperature;BMP_pressure;BME280_temperature;BME280_humidity;BME280_pressure;Samples;Min_cycle;Max_cycle;Signal;HPM_P1;HPM_P2
2024/04/11 00:00:22;;;;;;;10.00;2.90;;;12.90;99.90;;;;;;5409315;26;20076;-69
2024/04/11 00:02:51;;;;;;;5.95;2.80;;;12.90;99.90;;;;;;5409164;26;20023;-69
2024/04/11 00:05:19;;;;;;;10.88;2.90;;;12.90;99.90;;;;;;5405339;26;20011;-69
2024/04/11 00:07:47;;;;;;;12.25;3.50;;;13.00;99.90;;;;;;5408820;26;20007;-69
2024/04/11 00:10:16;;;;;;;10.45;2.60;;;13.00;99.90;;;;;;5408582;26;20560;-69
2024/04/11 00:12:43;;;;;;;6.15;2.78;;;13.00;99.90;;;;;;5408345;26;20155;-69
2024/04/11 00:15:10;;;;;;;6.97;3.20;;;13.00;99.90;;;;;;5406646;26;20015;-69
2024/04/11 00:17:37;;;;;;;8.43;2.75;;;13.00;99.90;;;;;;5409854;26;20014;-69
2024/04/11 00:20:05;;;;;;;8.20;3.30;;;13.00;99.90;;;;;;5405189;26;20053;-69
2024/04/11 00:22:32;;;;;;;6.90;2.75;;;13.00;99.90;;;;;;5409656;26;20047;-69
2024/04/11 00:24:59;;;;;;;7.20;2.47;;;13.00;99.90;;;;;;5403289;26;20016;-69
2024/04/11 00:27:26;;;;;;;15.60;4.43;;;13.00;99.90;;;;;;5408856;26;20008;-68
2024/04/11 00:29:53;;;;;;;13.18;3.42;;;13.00;99.90;;;;;;5408386;26;20047;-68
2024/04/11 00:32:22;;;;;;;5.47;2.25;;;13.00;99.90;;;;;;5409229;26;20018;-68
2024/04/11 00:34:50;;;;;;;10.80;2.85;;;13.00;99.90;;;;;;5406440;26;20463;-69
2024/04/11 00:37:17;;;;;;;6.95;2.45;;;13.10;99.90;;;;;;5406056;26;20000;-69
2024/04/11 00:39:43;;;;;;;5.07;2.47;;;13.10;99.90;;;;;;5404652;26;20003;-69
2024/04/11 00:42:10;;;;;;;6.90;3.13;;;13.10;99.90;;;;;;5403006;26;20442;-69
2024/04/11 00:44:37;;;;;;;8.27;2.83;;;13.10;99.90;;;;;;5406379;26;20015;-69
2024/04/11 00:47:09;;;;;;;8.32;3.00;;;13.00;99.90;;;;;;5408650;26;20329;-69
2024/04/11 00:49:37;;;;;;;6.55;2.50;;;13.00;99.90;;;;;;5405183;26;20053;-71
2024/04/11 00:52:04;;;;;;;7.72;2.58;;;13.00;99.90;;;;;;5399806;26;20014;-69
2024/04/11 00:54:31;;;;;;;5.97;2.63;;;13.00;99.90;;;;;;5403327;26;20015;-70
2024/04/11 00:56:59;;;;;;;9.77;2.42;;;13.00;99.90;;;;;;5377907;26;20011;-68
2024/04/11 00:59:27;;;;;;;4.95;2.60;;;13.00;99.90;;;;;;5406528;26;20000;-68
2024/04/11 01:01:54;;;;;;;8.60;2.28;;;13.00;99.90;;;;;;5370616;26;20016;-69
2024/04/11 01:04:21;;;;;;;4.82;2.10;;;13.10;99.90;;;;;;5407201;26;20012;-70
2024/04/11 01:07:08;;;;;;;8.88;3.33;;;13.10;99.90;;;;;;5377598;26;20055;-68
2024/04/11 01:09:38;;;;;;;8.63;2.50;;;13.10;99.90;;;;;;5400969;26;20012;-70
2024/04/11 01:12:05;;;;;;;5.70;2.63;;;13.20;99.90;;;;;;5405409;26;20474;-68
2024/04/11 01:14:32;;;;;;;7.65;2.47;;;13.20;99.90;;;;;;5406034;26;20134;-68
2024/04/11 01:16:59;;;;;;;5.78;1.80;;;13.20;99.90;;;;;;5403758;26;20015;-68
2024/04/11 01:19:26;;;;;;;4.28;2.15;;;13.20;99.90;;;;;;5406256;26;20003;-70
2024/04/11 01:21:55;;;;;;;8.02;2.20;;;13.20;99.90;;;;;;5408557;26;20004;-68
2024/04/11 01:24:22;;;;;;;6.75;2.40;;;13.20;99.90;;;;;;5391459;26;20003;-68
2024/04/11 01:26:49;;;;;;;5.80;2.05;;;13.10;99.90;;;;;;5401611;26;20015;-68
2024/04/11 01:29:16;;;;;;;6.75;2.45;;;13.10;99.90;;;;;;5399429;26;20000;-68
2024/04/11 01:31:44;;;;;;;8.07;2.75;;;13.00;99.90;;;;;;5408048;26;20018;-68
2024/04/11 01:34:10;;;;;;;7.80;3.20;;;13.00;99.90;;;;;;5406507;26;19999;-68
2024/04/11 01:36:38;;;;;;;12.57;3.35;;;13.00;99.90;;;;;;5405776;26;20015;-69
2024/04/11 01:39:09;;;;;;;6.13;2.33;;;12.90;99.90;;;;;;5399617;26;20000;-68
2024/04/11 01:41:39;;;;;;;6.45;2.65;;;12.90;99.90;;;;;;5401598;26;20055;-68
2024/04/11 01:44:06;;;;;;;8.52;2.70;;;12.90;99.90;;;;;;5396576;26;20050;-68
2024/04/11 01:46:33;;;;;;;9.38;2.60;;;12.90;99.90;;;;;;5400467;26;20004;-68
2024/04/11 01:49:01;;;;;;;11.27;3.13;;;12.90;99.90;;;;;;5386365;26;20010;-68
2024/04/11 01:51:28;;;;;;;6.38;2.60;;;12.90;99.90;;;;;;5403480;26;20019;-68
2024/04/11 01:53:55;;;;;;;6.75;2.53;;;12.90;99.90;;;;;;5403700;26;20090;-69
2024/04/11 01:56:25;;;;;;;5.93;2.15;;;12.90;99.90;;;;;;5406628;26;20036;-69
2024/04/11 01:58:55;;;;;;;9.45;3.17;;;12.90;99.90;;;;;;5403909;26;20015;-69
2024/04/11 02:01:21;;;;;;;7.70;2.78;;;12.90;99.90;;;;;;5407459;26;20014;-68
2024/04/11 02:03:49;;;;;;;7.20;2.70;;;13.00;99.90;;;;;;5404289;26;20023;-68
2024/04/11 02:06:16;;;;;;;8.45;3.25;;;13.00;99.90;;;;;;5405530;26;20081;-68
2024/04/11 02:08:43;;;;;;;8.88;3.50;;;13.00;99.90;;;;;;5406634;26;19999;-69
2024/04/11 02:11:11;;;;;;;4.10;2.47;;;13.00;99.90;;;;;;5406061;26;20014;-69
2024/04/11 02:13:38;;;;;;;8.23;3.05;;;13.00;99.90;;;;;;5389978;26;20404;-69
2024/04/11 02:16:05;;;;;;;5.30;2.88;;;13.00;99.90;;;;;;5407466;26;20004;-68
2024/04/11 02:18:33;;;;;;;8.50;2.78;;;13.00;99.90;;;;;;5405814;26;20032;-68
2024/04/11 02:21:00;;;;;;;7.13;3.13;;;13.00;99.90;;;;;;5406387;26;20024;-69
2024/04/11 02:23:28;;;;;;;5.32;2.50;;;13.00;99.90;;;;;;5401147;26;20011;-69
2024/04/11 02:25:57;;;;;;;6.35;3.15;;;13.00;99.90;;;;;;5401131;26;20007;-69
2024/04/11 02:28:24;;;;;;;7.95;3.00;;;13.00;99.90;;;;;;5397231;26;20028;-68
2024/04/11 02:30:54;;;;;;;9.80;3.17;;;13.10;99.90;;;;;;5397355;26;20007;-69
2024/04/11 02:33:29;;;;;;;7.10;2.60;;;13.00;99.90;;;;;;5405324;26;20042;-68
2024/04/11 02:35:57;;;;;;;5.97;2.53;;;13.10;99.90;;;;;;5389438;26;20000;-69
2024/04/11 02:38:25;;;;;;;7.68;3.20;;;13.00;99.90;;;;;;5405661;26;20003;-69
2024/04/11 02:40:52;;;;;;;5.60;2.47;;;13.00;99.90;;;;;;5406314;26;20010;-68
2024/04/11 02:43:19;;;;;;;5.68;2.20;;;13.10;99.90;;;;;;5404934;26;20017;-68
2024/04/11 02:45:48;;;;;;;9.68;2.28;;;13.10;99.90;;;;;;5403939;26;20000;-68
2024/04/11 02:48:15;;;;;;;4.35;2.28;;;13.10;99.90;;;;;;5402004;26;20076;-68
2024/04/11 02:50:42;;;;;;;5.85;2.60;;;13.10;99.90;;;;;;5399255;26;20000;-69
2024/04/11 02:53:09;;;;;;;5.97;2.15;;;13.10;99.90;;;;;;5404770;26;20008;-68
2024/04/11 02:55:37;;;;;;;6.10;2.17;;;13.10;99.90;;;;;;5408218;26;20022;-68
2024/04/11 02:58:04;;;;;;;7.20;2.33;;;13.10;99.90;;;;;;5390127;26;20014;-68
2024/04/11 03:00:30;;;;;;;8.07;2.03;;;13.10;99.90;;;;;;5410675;26;20442;-68
2024/04/11 03:02:59;;;;;;;3.97;2.05;;;13.10;99.90;;;;;;5410184;26;20014;-69
2024/04/11 03:05:26;;;;;;;6.82;1.73;;;13.10;99.90;;;;;;5404885;26;20008;-68
2024/04/11 03:07:53;;;;;;;10.27;2.50;;;13.10;99.90;;;;;;5408745;26;20003;-68
2024/04/11 03:10:20;;;;;;;2.80;1.77;;;13.10;99.90;;;;;;5407588;26;20012;-68
2024/04/11 03:12:48;;;;;;;6.35;2.65;;;13.10;99.90;;;;;;5411042;26;20004;-70
2024/04/11 03:15:18;;;;;;;5.28;2.13;;;13.10;99.90;;;;;;5402962;26;20394;-68
2024/04/11 03:17:46;;;;;;;4.82;2.33;;;13.10;99.90;;;;;;5410537;26;20451;-68
2024/04/11 03:20:17;;;;;;;3.80;1.92;;;13.10;99.90;;;;;;5401790;26;20081;-69
2024/04/11 03:22:44;;;;;;;7.28;2.30;;;13.10;99.90;;;;;;5394505;26;20018;-69
2024/04/11 03:25:12;;;;;;;9.20;2.95;;;13.00;99.90;;;;;;5410317;26;20571;-69
2024/04/11 03:27:39;;;;;;;9.65;2.88;;;13.00;99.90;;;;;;5409820;26;20092;-69
2024/04/11 03:30:08;;;;;;;3.65;2.60;;;13.00;99.90;;;;;;5408627;26;19997;-69
2024/04/11 03:32:35;;;;;;;6.35;2.80;;;13.00;99.90;;;;;;5406055;26;20007;-69
2024/04/11 03:35:04;;;;;;;9.73;3.28;;;13.00;99.90;;;;;;5407350;26;20000;-69
2024/04/11 03:37:31;;;;;;;9.40;3.10;;;13.00;99.90;;;;;;5408117;26;20008;-69
2024/04/11 03:39:58;;;;;;;8.90;2.88;;;13.00;99.90;;;;;;5406154;26;19999;-69
2024/04/11 03:42:25;;;;;;;6.25;2.65;;;13.00;99.90;;;;;;5396454;26;20076;-69
2024/04/11 03:44:51;;;;;;;6.90;3.15;;;13.00;99.90;;;;;;5407152;26;20084;-69
2024/04/11 03:47:21;;;;;;;8.27;3.22;;;13.00;99.90;;;;;;5407389;26;20031;-69
2024/04/11 03:49:51;;;;;;;7.95;3.30;;;13.00;99.90;;;;;;5404061;26;20011;-69
2024/04/11 03:52:18;;;;;;;8.95;3.75;;;13.00;99.90;;;;;;5381363;26;20078;-68
2024/04/11 03:54:45;;;;;;;6.45;2.97;;;13.00;99.90;;;;;;5392538;26;20077;-69
2024/04/11 03:57:13;;;;;;;6.65;3.38;;;13.00;99.90;;;;;;5407813;26;20474;-69
2024/04/11 03:59:40;;;;;;;8.63;3.25;;;13.00;99.90;;;;;;5407938;26;20486;-69
2024/04/11 04:02:07;;;;;;;6.90;3.30;;;13.00;99.90;;;;;;5410131;26;20049;-69
2024/04/11 04:04:34;;;;;;;7.65;3.50;;;13.00;99.90;;;;;;5405760;26;20022;-69
2024/04/11 04:07:01;;;;;;;10.60;4.20;;;13.00;99.90;;;;;;5407527;26;20462;-69
2024/04/11 04:09:28;;;;;;;7.93;3.70;;;12.90;99.90;;;;;;5404938;26;20008;-69
2024/04/11 04:11:55;;;;;;;8.40;4.75;;;12.90;99.90;;;;;;5406379;26;20396;-70
2024/04/11 04:14:22;;;;;;;11.90;4.13;;;12.80;99.90;;;;;;5409532;26;20458;-69
2024/04/11 04:16:49;;;;;;;10.73;4.13;;;12.80;99.90;;;;;;5406657;26;20007;-69
2024/04/11 04:19:16;;;;;;;9.20;3.30;;;12.80;99.90;;;;;;5408437;26;20495;-69
2024/04/11 04:21:43;;;;;;;10.52;3.65;;;12.80;99.90;;;;;;5407050;26;20466;-68
2024/04/11 04:24:10;;;;;;;7.03;4.07;;;12.80;99.90;;;;;;5409779;26;20047;-69
2024/04/11 04:26:38;;;;;;;5.38;3.40;;;12.80;99.90;;;;;;5406335;26;20018;-70
2024/04/11 04:29:05;;;;;;;7.70;3.30;;;12.80;99.90;;;;;;5408800;26;20423;-69
2024/04/11 04:31:32;;;;;;;7.93;3.35;;;12.80;99.90;;;;;;5408177;26;20007;-69
2024/04/11 04:34:00;;;;;;;4.55;3.35;;;12.80;99.90;;;;;;5407578;26;20077;-69
2024/04/11 04:36:32;;;;;;;10.70;3.65;;;12.80;99.90;;;;;;5400992;26;20446;-69
2024/04/11 04:39:00;;;;;;;10.13;3.55;;;12.80;99.90;;;;;;5407456;26;20018;-69
2024/04/11 04:41:28;;;;;;;5.65;3.10;;;12.80;99.90;;;;;;5407404;26;20014;-69
2024/04/11 04:46:37;;;;;;;8.88;2.53;;;12.80;99.90;;;;;;3971036;21;20384;-68
2024/04/11 04:49:09;;;;;;;10.35;3.53;;;12.80;99.90;;;;;;5394617;26;20000;-68
2024/04/11 04:51:38;;;;;;;;;;;12.80;99.90;;;;;;5380264;26;20524;-68
2024/04/11 04:54:08;;;;;;;4.60;2.08;;;12.80;99.90;;;;;;5401350;26;19931;-68
2024/04/11 04:56:36;;;;;;;6.47;2.85;;;12.80;99.90;;;;;;5405966;26;20007;-69
2024/04/11 04:59:03;;;;;;;6.93;2.00;;;12.90;99.90;;;;;;5404436;26;20036;-68
2024/04/11 05:01:33;;;;;;;6.03;2.25;;;12.90;99.90;;;;;;5403796;26;20510;-69
2024/04/11 05:04:00;;;;;;;3.63;2.00;;;12.90;99.90;;;;;;5380684;26;20004;-69
2024/04/11 05:06:28;;;;;;;4.60;1.70;;;12.90;99.90;;;;;;5402830;26;19999;-69
2024/04/11 05:08:56;;;;;;;7.82;2.30;;;12.90;99.90;;;;;;5399337;26;20015;-69
2024/04/11 05:11:25;;;;;;;5.90;1.83;;;13.00;99.90;;;;;;5403499;26;20003;-68
2024/04/11 05:13:53;;;;;;;4.20;1.60;;;12.90;99.90;;;;;;5387969;26;20007;-69
2024/04/11 05:16:20;;;;;;;5.15;2.85;;;13.00;99.90;;;;;;5389088;26;20007;-68
2024/04/11 05:18:51;;;;;;;6.45;1.90;;;13.00;99.90;;;;;;5394451;26;20007;-68
2024/04/11 05:21:23;;;;;;;3.53;1.40;;;13.00;99.90;;;;;;5398668;26;20000;-68
2024/04/11 05:23:51;;;;;;;5.03;1.77;;;13.00;99.90;;;;;;5397066;26;20466;-68
2024/04/11 05:26:23;;;;;;;5.15;1.75;;;13.00;99.90;;;;;;5400696;26;20004;-68
2024/04/11 05:28:53;;;;;;;4.57;2.55;;;13.00;99.90;;;;;;5390893;26;20489;-68
2024/04/11 05:31:25;;;;;;;3.92;1.42;;;13.00;99.90;;;;;;5403994;26;20003;-68
2024/04/11 05:34:06;;;;;;;3.03;1.58;;;13.10;99.90;;;;;;5394855;26;20057;-68
2024/04/11 05:36:36;;;;;;;5.97;2.00;;;13.10;99.90;;;;;;5404776;26;20010;-67
2024/04/11 05:39:04;;;;;;;5.43;1.67;;;13.10;99.90;;;;;;5393075;26;20008;-68
2024/04/11 05:41:32;;;;;;;4.10;1.95;;;13.10;99.90;;;;;;5380848;26;20004;-69
2024/04/11 05:43:59;;;;;;;3.22;1.27;;;13.10;99.90;;;;;;5383157;26;20004;-67
2024/04/11 05:46:27;;;;;;;5.15;1.63;;;13.10;99.90;;;;;;5375476;26;20004;-70
2024/04/11 05:48:55;;;;;;;4.47;1.42;;;13.10;99.90;;;;;;5399424;26;20003;-69
2024/04/11 05:51:22;;;;;;;6.20;2.03;;;13.10;99.90;;;;;;5359609;26;20077;-68
2024/04/11 05:53:49;;;;;;;4.70;1.30;;;13.10;99.90;;;;;;5399804;26;20021;-67
2024/04/11 05:56:17;;;;;;;4.65;1.25;;;13.20;99.90;;;;;;5375625;26;20032;-68
2024/04/11 05:58:45;;;;;;;3.72;1.85;;;13.20;99.90;;;;;;5400516;26;20080;-68
2024/04/11 06:01:15;;;;;;;4.78;1.10;;;13.10;99.90;;;;;;5392941;26;20015;-69
2024/04/11 06:03:50;;;;;;;5.55;1.40;;;13.10;99.90;;;;;;5379632;26;20473;-68
2024/04/11 06:06:20;;;;;;;5.82;1.55;;;13.20;99.90;;;;;;5379964;26;20029;-70
2024/04/11 06:08:47;;;;;;;2.20;1.17;;;13.20;99.90;;;;;;5379580;26;20023;-68
2024/04/11 06:11:17;;;;;;;6.72;1.55;;;13.20;99.90;;;;;;5387838;26;20076;-68
2024/04/11 06:13:46;;;;;;;2.97;1.52;;;13.10;99.90;;;;;;5378030;26;20004;-68
2024/04/11 06:16:14;;;;;;;4.00;1.08;;;13.10;99.90;;;;;;5379619;26;20019;-68
2024/04/11 06:18:43;;;;;;;2.50;1.13;;;13.10;99.90;;;;;;5408514;26;19999;-68
2024/04/11 06:21:12;;;;;;;10.15;1.67;;;13.20;99.90;;;;;;5389558;26;20478;-70
2024/04/11 06:23:39;;;;;;;7.40;2.08;;;13.10;99.90;;;;;;5406422;26;20019;-69
2024/04/11 06:26:11;;;;;;;2.90;1.42;;;13.10;99.90;;;;;;5388411;26;20014;-68
2024/04/11 06:28:38;;;;;;;4.68;1.40;;;13.10;99.90;;;;;;5394843;26;20076;-69
2024/04/11 06:31:08;;;;;;;6.70;1.50;;;13.10;99.90;;;;;;5394972;26;20007;-68
2024/04/11 06:33:40;;;;;;;6.00;1.45;;;13.20;99.90;;;;;;5393018;26;20223;-68
2024/04/11 06:36:10;;;;;;;7.45;1.23;;;13.20;99.90;;;;;;5384992;26;20008;-68
2024/04/11 06:38:38;;;;;;;6.85;1.65;;;13.20;99.90;;;;;;5401111;26;20004;-70
2024/04/11 06:41:08;;;;;;;4.28;1.52;;;13.20;99.90;;;;;;5395986;26;20044;-68
2024/04/11 06:43:37;;;;;;;4.70;1.50;;;13.20;99.90;;;;;;5388756;26;20047;-68
2024/04/11 06:46:10;;;;;;;4.55;1.23;;;13.30;99.90;;;;;;5385095;26;20003;-67
2024/04/11 06:48:38;;;;;;;6.60;1.50;;;13.30;99.90;;;;;;5399988;26;20111;-68
2024/04/11 06:51:06;;;;;;;10.45;3.72;;;13.30;99.90;;;;;;5398134;26;20357;-69
2024/04/11 06:53:34;;;;;;;9.70;2.08;;;13.30;99.90;;;;;;5398091;26;20000;-68
2024/04/11 06:56:07;;;;;;;9.65;1.90;;;13.30;99.90;;;;;;5402064;26;20027;-68
2024/04/11 06:58:36;;;;;;;4.00;1.70;;;13.30;99.90;;;;;;5380832;26;20019;-68
2024/04/11 07:01:08;;;;;;;1.85;1.23;;;13.20;99.90;;;;;;5377254;26;20434;-69
2024/04/11 07:03:39;;;;;;;6.00;2.00;;;13.20;99.90;;;;;;5385601;26;20004;-68
2024/04/11 07:06:16;;;;;;;6.22;1.52;;;13.30;99.90;;;;;;5385858;26;20018;-68
2024/04/11 07:08:43;;;;;;;3.30;1.40;;;13.30;99.90;;;;;;5377462;26;20004;-68
2024/04/11 07:11:19;;;;;;;3.75;1.20;;;13.30;99.90;;;;;;5382265;26;20015;-69
2024/04/11 07:13:48;;;;;;;4.45;1.42;;;13.30;99.90;;;;;;5387591;26;19999;-67
2024/04/11 07:16:20;;;;;;;2.20;1.00;;;13.30;99.90;;;;;;5399824;26;20045;-68
2024/04/11 07:18:54;;;;;;;3.30;0.93;;;13.30;99.90;;;;;;5389933;26;19999;-69
2024/04/11 07:21:25;;;;;;;5.32;1.20;;;13.40;99.90;;;;;;5381453;26;20338;-69
2024/04/11 07:23:58;;;;;;;5.20;1.20;;;13.40;99.90;;;;;;5385224;26;19996;-69
2024/04/11 07:26:31;;;;;;;3.45;1.10;;;13.40;99.90;;;;;;5397643;26;20474;-69
2024/04/11 07:29:03;;;;;;;3.25;0.85;;;13.40;99.90;;;;;;5392448;26;20012;-69
2024/04/11 07:31:33;;;;;;;7.40;1.50;;;13.50;99.90;;;;;;5376038;26;20539;-68
2024/04/11 07:34:02;;;;;;;2.90;1.00;;;13.50;99.90;;;;;;5380586;26;20125;-67
2024/04/11 07:36:32;;;;;;;5.57;1.25;;;13.50;99.90;;;;;;5390607;26;20342;-68
2024/04/11 07:39:01;;;;;;;5.97;1.35;;;13.60;99.90;;;;;;5392499;26;20032;-69
2024/04/11 07:41:44;;;;;;;1.55;0.90;;;13.60;99.90;;;;;;5387263;26;20004;-70
2024/04/11 07:44:22;;;;;;;6.15;0.98;;;13.70;99.90;;;;;;5395375;26;20008;-70
2024/04/11 07:46:53;;;;;;;4.95;1.20;;;13.70;99.90;;;;;;5387842;26;20134;-70
2024/04/11 07:49:40;;;;;;;5.35;0.75;;;13.80;99.90;;;;;;5393532;26;20019;-67
2024/04/11 07:52:10;;;;;;;3.65;0.70;;;13.80;99.90;;;;;;5395247;26;20018;-67
2024/04/11 07:54:38;;;;;;;2.03;0.73;;;13.90;99.90;;;;;;5385741;26;20470;-67
2024/04/11 07:57:14;;;;;;;4.32;0.70;;;13.90;99.90;;;;;;5387169;26;19999;-68
2024/04/11 07:59:41;;;;;;;3.00;0.65;;;13.90;99.90;;;;;;5403104;26;20105;-69
2024/04/11 08:02:10;;;;;;;2.55;1.05;;;13.90;99.90;;;;;;5386063;26;20015;-69
2024/04/11 08:04:38;;;;;;;1.42;0.50;;;14.00;99.90;;;;;;5386293;26;20013;-68
2024/04/11 08:07:05;;;;;;;4.32;0.77;;;14.00;99.90;;;;;;5377986;26;20000;-69
2024/04/11 08:09:44;;;;;;;4.60;0.70;;;14.10;99.90;;;;;;5393673;26;20023;-68
2024/04/11 08:12:13;;;;;;;1.38;0.50;;;14.10;99.90;;;;;;5408990;26;20049;-69
2024/04/11 08:14:41;;;;;;;3.58;1.20;;;14.20;99.90;;;;;;5384014;26;20004;-69
2024/04/11 08:17:13;;;;;;;0.77;0.50;;;14.30;99.90;;;;;;5407402;26;20014;-68
2024/04/11 08:19:42;;;;;;;4.50;0.98;;;14.40;99.90;;;;;;5396419;26;20023;-68
2024/04/11 08:22:23;;;;;;;0.73;0.73;;;14.40;99.90;;;;;;5377901;26;20011;-69
2024/04/11 08:24:50;;;;;;;1.25;0.43;;;14.40;99.90;;;;;;5390562;26;20007;-69
2024/04/11 08:27:17;;;;;;;5.93;0.60;;;14.40;99.90;;;;;;5384264;26;20086;-69
2024/04/11 08:29:47;;;;;;;1.77;0.77;;;14.40;99.90;;;;;;5393557;26;20019;-69
2024/04/11 08:32:14;;;;;;;7.03;0.93;;;14.40;99.90;;;;;;5406800;26;19999;-67
2024/04/11 08:34:41;;;;;;;1.60;0.65;;;14.50;99.90;;;;;;5399189;26;20386;-68
2024/04/11 08:37:08;;;;;;;4.20;1.05;;;14.50;99.90;;;;;;5398994;26;20466;-66
2024/04/11 08:39:35;;;;;;;3.83;0.70;;;14.70;99.90;;;;;;5383118;26;20004;-68
2024/04/11 08:42:02;;;;;;;3.45;0.85;;;14.70;99.90;;;;;;5405974;26;19996;-67
2024/04/11 08:44:30;;;;;;;2.88;0.60;;;14.80;99.90;;;;;;5384454;26;20097;-68
2024/04/11 08:46:58;;;;;;;0.73;0.47;;;14.80;99.90;;;;;;5366388;26;20150;-68
2024/04/11 08:49:25;;;;;;;1.98;0.47;;;14.80;99.90;;;;;;5403841;26;20003;-68
2024/04/11 08:51:53;;;;;;;1.85;0.50;;;14.80;99.90;;;;;;5397638;26;20009;-68
2024/04/11 08:54:21;;;;;;;2.28;0.40;;;14.80;99.90;;;;;;5381779;26;20008;-68
2024/04/11 08:56:48;;;;;;;1.45;0.80;;;14.80;99.90;;;;;;5382377;26;20014;-68
2024/04/11 08:59:16;;;;;;;0.63;0.43;;;14.90;99.90;;;;;;5391564;26;20018;-68
2024/04/11 09:01:43;;;;;;;2.30;0.47;;;14.90;99.90;;;;;;5373698;26;19995;-69
2024/04/11 09:04:10;;;;;;;2.00;0.75;;;14.90;99.90;;;;;;5391063;26;20015;-68
2024/04/11 09:06:37;;;;;;;1.02;0.40;;;15.00;99.90;;;;;;5387094;26;20015;-68
2024/04/11 09:09:10;;;;;;;1.48;0.88;;;15.10;99.90;;;;;;5379319;26;20541;-68
2024/04/11 09:11:42;;;;;;;1.65;0.85;;;15.10;99.90;;;;;;5397417;26;20365;-69
2024/04/11 09:14:12;;;;;;;1.45;0.50;;;15.20;99.90;;;;;;5383865;26;20050;-69
2024/04/11 09:16:39;;;;;;;0.57;0.47;;;15.20;99.90;;;;;;5394886;26;20084;-69
2024/04/11 09:19:10;;;;;;;2.97;1.02;;;15.40;99.90;;;;;;5375203;26;19996;-69
2024/04/11 09:21:44;;;;;;;1.38;0.70;;;15.40;99.90;;;;;;5385511;26;20397;-69
2024/04/11 09:24:23;;;;;;;1.83;0.80;;;15.40;99.90;;;;;;5379766;26;20004;-68
2024/04/11 09:26:53;;;;;;;3.90;0.73;;;15.50;99.90;;;;;;5388399;26;20454;-68
2024/04/11 09:29:21;;;;;;;2.33;0.95;;;15.60;99.90;;;;;;5383569;26;20008;-68
2024/04/11 09:31:53;;;;;;;1.27;0.70;;;15.60;99.90;;;;;;5387385;26;20001;-68
2024/04/11 09:34:26;;;;;;;0.88;0.57;;;15.40;99.90;;;;;;5368677;26;20004;-67
2024/04/11 09:36:53;;;;;;;1.83;0.70;;;15.40;99.90;;;;;;5382169;26;20018;-69
2024/04/11 09:39:45;;;;;;;2.25;0.60;;;15.50;99.90;;;;;;5371739;26;20642;-68
2024/04/11 09:42:11;;;;;;;2.53;0.65;;;15.50;99.90;;;;;;5389430;26;20007;-68
2024/04/11 09:44:48;;;;;;;2.15;0.65;;;15.60;99.90;;;;;;5378716;26;20000;-68
2024/04/11 09:47:19;;;;;;;1.38;0.57;;;15.70;99.90;;;;;;5400663;26;20017;-68
2024/04/11 09:49:53;;;;;;;5.00;0.80;;;15.80;99.90;;;;;;5343409;26;20000;-68
2024/04/11 09:52:30;;;;;;;2.63;0.90;;;16.00;99.90;;;;;;5384904;26;20528;-69
2024/04/11 09:55:02;;;;;;;2.30;0.80;;;16.00;99.90;;;;;;5397723;26;20057;-68
2024/04/11 09:57:43;;;;;;;2.40;0.85;;;16.10;99.90;;;;;;5393551;26;20019;-68
2024/04/11 10:00:22;;;;;;;1.05;0.57;;;16.10;99.90;;;;;;5378143;26;20008;-68
2024/04/11 10:02:52;;;;;;;3.97;0.77;;;16.10;99.90;;;;;;5390088;26;20138;-68
2024/04/11 10:05:23;;;;;;;4.07;0.88;;;16.20;99.90;;;;;;5378379;26;19996;-68
2024/04/11 10:07:58;;;;;;;2.85;0.80;;;16.20;99.90;;;;;;5384977;26;19999;-68
2024/04/11 10:10:29;;;;;;;5.63;1.30;;;16.20;99.90;;;;;;5410191;26;19999;-68
2024/04/11 10:13:04;;;;;;;2.13;0.80;;;16.30;99.90;;;;;;5396503;26;20000;-67
2024/04/11 10:15:33;;;;;;;4.32;0.95;;;16.20;99.90;;;;;;5381648;26;20479;-68
2024/04/11 10:18:11;;;;;;;2.70;0.88;;;16.20;99.90;;;;;;5383661;26;20016;-68
2024/04/11 10:20:39;;;;;;;6.47;1.35;;;16.10;99.90;;;;;;5396296;26;20461;-68
2024/04/11 10:23:09;;;;;;;1.65;0.82;;;16.20;99.90;;;;;;5397175;26;20007;-68
2024/04/11 10:25:38;;;;;;;2.60;0.70;;;16.30;99.90;;;;;;5384944;26;20073;-68
2024/04/11 10:28:14;;;;;;;2.33;0.65;;;16.30;99.90;;;;;;5377820;26;20039;-68
2024/04/11 10:30:50;;;;;;;1.48;0.55;;;16.40;99.90;;;;;;5399919;26;20324;-68
2024/04/11 10:33:29;;;;;;;1.73;0.60;;;16.50;99.90;;;;;;5398434;26;20556;-68
2024/04/11 10:35:57;;;;;;;1.92;1.02;;;16.60;99.90;;;;;;5396918;26;20015;-67
2024/04/11 10:38:27;;;;;;;3.28;0.75;;;16.60;99.90;;;;;;5396263;26;20018;-68
2024/04/11 10:40:56;;;;;;;6.93;0.90;;;16.50;99.90;;;;;;5377059;26;20016;-68
2024/04/11 10:43:27;;;;;;;2.05;1.27;;;16.60;99.90;;;;;;5374646;26;20058;-68
2024/04/11 10:45:58;;;;;;;1.83;0.85;;;16.50;99.90;;;;;;5389844;26;20015;-67
2024/04/11 10:48:25;;;;;;;2.58;0.82;;;16.50;99.90;;;;;;5372577;26;20007;-67
2024/04/11 10:50:59;;;;;;;2.40;1.10;;;16.60;99.90;;;;;;5393033;26;20019;-66
2024/04/11 10:53:26;;;;;;;1.60;0.65;;;16.60;99.90;;;;;;5393821;26;19999;-68
2024/04/11 10:55:55;;;;;;;2.47;1.13;;;16.60;99.90;;;;;;5379343;26;20004;-67
2024/04/11 10:58:25;;;;;;;3.58;0.80;;;16.50;99.90;;;;;;5394618;26;20012;-67
2024/04/11 11:01:07;;;;;;;5.97;1.00;;;16.40;99.90;;;;;;5386142;26;20016;-66
2024/04/11 11:03:42;;;;;;;3.83;1.13;;;16.30;99.90;;;;;;5401762;26;20325;-68
2024/04/11 11:06:25;;;;;;;3.00;2.22;;;16.40;99.90;;;;;;5377551;26;20000;-68
2024/04/11 11:08:59;;;;;;;2.60;0.82;;;16.60;99.90;;;;;;5383866;26;20011;-68
2024/04/11 11:11:27;;;;;;;0.82;0.57;;;16.60;99.90;;;;;;5396068;26;20089;-68
2024/04/11 11:13:55;;;;;;;2.10;0.73;;;16.60;99.90;;;;;;5392120;26;20074;-68
2024/04/11 11:16:23;;;;;;;3.22;0.70;;;16.60;99.90;;;;;;5387484;26;20008;-68
2024/04/11 11:18:52;;;;;;;1.30;1.00;;;16.70;99.90;;;;;;5392913;26;20004;-68
2024/04/11 11:21:22;;;;;;;4.75;0.80;;;16.70;99.90;;;;;;5387862;26;20058;-67
2024/04/11 11:23:59;;;;;;;2.35;0.80;;;16.80;99.90;;;;;;5411295;26;20015;-69
2024/04/11 11:26:35;;;;;;;2.25;0.85;;;16.80;99.90;;;;;;5391042;26;20014;-69
2024/04/11 11:29:07;;;;;;;3.35;0.70;;;16.90;99.90;;;;;;5405119;26;20065;-68
2024/04/11 11:31:36;;;;;;;0.63;0.50;;;17.00;99.90;;;;;;5389338;26;20062;-67
2024/04/11 11:34:11;;;;;;;2.08;0.88;;;17.10;99.90;;;;;;5394931;26;20081;-67
2024/04/11 11:36:40;;;;;;;3.08;0.75;;;17.10;99.90;;;;;;5403883;26;20321;-67
2024/04/11 11:39:17;;;;;;;5.13;2.05;;;17.30;99.90;;;;;;5400793;26;20022;-68
2024/04/11 11:41:48;;;;;;;2.80;0.75;;;17.20;99.90;;;;;;5399456;26;20003;-68
2024/04/11 11:44:21;;;;;;;2.88;0.60;;;17.20;99.90;;;;;;5400845;26;20011;-68
2024/04/11 11:47:06;;;;;;;1.13;0.52;;;17.20;99.90;;;;;;5395137;26;20084;-68
2024/04/11 11:49:37;;;;;;;1.85;0.60;;;17.30;99.90;;;;;;5404631;26;20047;-68
2024/04/11 11:52:05;;;;;;;1.83;0.70;;;17.50;99.90;;;;;;5400440;26;20003;-68
2024/04/11 11:54:35;;;;;;;4.53;0.90;;;17.50;99.90;;;;;;5394077;26;20018;-68
2024/04/11 11:59:58;;;;;;;3.88;1.02;;;17.70;99.90;;;;;;5391836;26;19999;-67
2024/04/11 12:02:26;;;;;;;4.53;0.73;;;17.70;99.90;;;;;;5387250;26;20009;-68
2024/04/11 12:04:53;;;;;;;3.35;1.30;;;17.60;99.90;;;;;;5391351;26;20004;-68
2024/04/11 12:07:24;;;;;;;3.13;0.63;;;17.60;99.90;;;;;;5381840;26;20020;-68
2024/04/11 12:10:12;;;;;;;3.90;1.70;;;17.70;99.90;;;;;;5408022;26;20017;-68
2024/04/11 12:12:40;;;;;;;8.52;1.15;;;17.70;99.90;;;;;;5404754;26;20019;-68
2024/04/11 12:15:17;;;;;;;1.58;0.75;;;17.70;99.90;;;;;;5391109;26;20003;-68
2024/04/11 12:17:44;;;;;;;3.03;0.80;;;17.80;99.90;;;;;;5393187;26;20499;-68
2024/04/11 12:20:15;;;;;;;5.07;0.68;;;17.90;99.90;;;;;;5395442;26;20011;-67
2024/04/11 12:22:44;;;;;;;2.92;0.68;;;17.90;99.90;;;;;;5395998;26;20000;-67
2024/04/11 12:25:18;;;;;;;2.17;0.90;;;18.10;99.90;;;;;;5398661;26;20000;-67
2024/04/11 12:27:46;;;;;;;2.78;1.15;;;18.20;99.90;;;;;;5394362;26;20027;-67
2024/04/11 12:30:22;;;;;;;6.53;1.75;;;18.20;99.90;;;;;;5401901;26;20018;-68
2024/04/11 12:32:49;;;;;;;2.10;1.02;;;18.20;99.90;;;;;;5385543;26;20028;-67
2024/04/11 12:35:19;;;;;;;5.47;0.98;;;18.20;99.90;;;;;;5381402;26;20000;-68
2024/04/11 12:37:46;;;;;;;1.95;0.75;;;18.20;99.90;;;;;;5401909;26;19996;-67
2024/04/11 12:40:13;;;;;;;3.15;0.90;;;18.20;99.90;;;;;;5386630;26;20045;-67
2024/04/11 12:42:44;;;;;;;1.70;0.63;;;18.20;99.90;;;;;;5383459;26;20880;-68
2024/04/11 12:45:18;;;;;;;1.38;0.82;;;18.30;99.90;;;;;;5386786;26;20004;-68
2024/04/11 12:47:59;;;;;;;3.22;0.70;;;18.40;99.90;;;;;;5396811;26;20524;-67
2024/04/11 12:50:28;;;;;;;2.35;0.80;;;18.40;99.90;;;;;;5407108;26;19996;-66
2024/04/11 12:52:56;;;;;;;0.88;0.52;;;18.30;99.90;;;;;;5392354;26;20007;-69
2024/04/11 12:55:26;;;;;;;3.53;0.98;;;18.30;99.90;;;;;;5382112;26;20041;-68
2024/04/11 12:58:01;;;;;;;0.73;0.50;;;18.40;99.90;;;;;;5400162;26;20000;-67
2024/04/11 13:00:35;;;;;;;3.50;0.63;;;18.50;99.90;;;;;;5388451;26;20008;-67
2024/04/11 13:03:15;;;;;;;2.00;0.80;;;18.70;99.90;;;;;;5383319;26;20004;-67